sensor_id;sensor_type;location;lat;lon;timestamp;P1;durP1;ratioP1;P2;durP2;ratioP2
34359;SDS011;20624;55.870;26.506;2024-01-30T00:01:13;11.25;;;6.95;;
34359;SDS011;20624;55.870;26.506;2024-01-30T00:03:40;12.55;;;7.13;;
34359;SDS011;20624;55.870;26.506;2024-01-30T00:06:08;17.20;;;8.15;;
34359;SDS011;20624;55.870;26.506;2024-01-30T00:08:36;14.40;;;7.85;;
34359;SDS011;20624;55.870;26.506;2024-01-30T00:11:07;14.00;;;7.63;;
34359;SDS011;20624;55.870;26.506;2024-01-30T00:13:34;11.27;;;7.05;;
34359;SDS011;20624;55.870;26.506;2024-01-30T00:16:02;11.07;;;6.60;;
34359;SDS011;20624;55.870;26.506;2024-01-30T00:18:30;11.35;;;6.32;;
34359;SDS011;20624;55.870;26.506;2024-01-30T00:21:01;10.70;;;6.25;;
34359;SDS011;20624;55.870;26.506;2024-01-30T00:23:28;10.88;;;5.20;;
34359;SDS011;20624;55.870;26.506;2024-01-30T00:25:57;12.45;;;6.40;;
34359;SDS011;20624;55.870;26.506;2024-01-30T00:28:30;10.18;;;6.05;;
34359;SDS011;20624;55.870;26.506;2024-01-30T00:30:58;11.57;;;6.68;;
34359;SDS011;20624;55.870;26.506;2024-01-30T00:33:26;13.73;;;6.97;;
34359;SDS011;20624;55.870;26.506;2024-01-30T00:35:53;12.32;;;6.88;;
34359;SDS011;20624;55.870;26.506;2024-01-30T00:38:21;12.50;;;7.03;;
34359;SDS011;20624;55.870;26.506;2024-01-30T00:40:49;17.23;;;8.23;;
34359;SDS011;20624;55.870;26.506;2024-01-30T00:43:19;14.18;;;8.15;;
34359;SDS011;20624;55.870;26.506;2024-01-30T00:45:47;12.88;;;6.20;;
34359;SDS011;20624;55.870;26.506;2024-01-30T00:48:18;9.55;;;6.72;;
34359;SDS011;20624;55.870;26.506;2024-01-30T00:50:47;14.43;;;7.05;;
34359;SDS011;20624;55.870;26.506;2024-01-30T00:53:15;10.93;;;6.60;;
34359;SDS011;20624;55.870;26.506;2024-01-30T00:55:43;12.80;;;6.40;;
34359;SDS011;20624;55.870;26.506;2024-01-30T00:58:10;13.35;;;7.43;;
34359;SDS011;20624;55.870;26.506;2024-01-30T01:03:14;11.10;;;6.93;;
34359;SDS011;20624;55.870;26.506;2024-01-30T01:05:41;13.07;;;6.35;;
34359;SDS011;20624;55.870;26.506;2024-01-30T01:08:09;14.85;;;7.05;;
34359;SDS011;20624;55.870;26.506;2024-01-30T01:10:39;12.77;;;7.07;;
34359;SDS011;20624;55.870;26.506;2024-01-30T01:13:07;16.30;;;7.95;;
34359;SDS011;20624;55.870;26.506;2024-01-30T01:15:34;13.05;;;6.40;;
34359;SDS011;20624;55.870;26.506;2024-01-30T01:18:05;12.38;;;7.88;;
34359;SDS011;20624;55.870;26.506;2024-01-30T01:20:35;14.85;;;7.05;;
34359;SDS011;20624;55.870;26.506;2024-01-30T01:23:03;10.82;;;6.88;;
34359;SDS011;20624;55.870;26.506;2024-01-30T01:28:04;9.32;;;6.22;;
34359;SDS011;20624;55.870;26.506;2024-01-30T01:30:31;13.45;;;7.80;;
34359;SDS011;20624;55.870;26.506;2024-01-30T01:32:59;12.07;;;7.28;;
34359;SDS011;20624;55.870;26.506;2024-01-30T01:37:58;12.00;;;7.43;;
34359;SDS011;20624;55.870;26.506;2024-01-30T01:40:29;12.18;;;7.72;;
34359;SDS011;20624;55.870;26.506;2024-01-30T01:43:02;12.18;;;7.63;;
34359;SDS011;20624;55.870;26.506;2024-01-30T01:45:31;13.32;;;7.03;;
34359;SDS011;20624;55.870;26.506;2024-01-30T01:47:59;12.02;;;6.75;;
34359;SDS011;20624;55.870;26.506;2024-01-30T01:50:29;14.85;;;7.63;;
34359;SDS011;20624;55.870;26.506;2024-01-30T01:52:57;13.52;;;7.40;;
34359;SDS011;20624;55.870;26.506;2024-01-30T01:55:28;15.57;;;7.05;;
34359;SDS011;20624;55.870;26.506;2024-01-30T01:57:57;14.93;;;6.68;;
34359;SDS011;20624;55.870;26.506;2024-01-30T02:00:24;15.95;;;7.85;;
34359;SDS011;20624;55.870;26.506;2024-01-30T02:02:52;14.27;;;6.95;;
34359;SDS011;20624;55.870;26.506;2024-01-30T02:05:21;14.25;;;7.15;;
34359;SDS011;20624;55.870;26.506;2024-01-30T02:07:48;13.60;;;7.10;;
34359;SDS011;20624;55.870;26.506;2024-01-30T02:10:19;13.52;;;7.45;;
34359;SDS011;20624;55.870;26.506;2024-01-30T02:12:50;15.43;;;8.18;;
34359;SDS011;20624;55.870;26.506;2024-01-30T02:15:17;17.30;;;8.60;;
34359;SDS011;20624;55.870;26.506;2024-01-30T02:17:45;14.05;;;7.68;;
34359;SDS011;20624;55.870;26.506;2024-01-30T02:20:12;10.70;;;6.75;;
34359;SDS011;20624;55.870;26.506;2024-01-30T02:22:40;13.43;;;8.27;;
34359;SDS011;20624;55.870;26.506;2024-01-30T02:25:08;11.27;;;6.28;;
34359;SDS011;20624;55.870;26.506;2024-01-30T02:27:37;14.80;;;6.75;;
34359;SDS011;20624;55.870;26.506;2024-01-30T02:30:07;14.32;;;7.47;;
34359;SDS011;20624;55.870;26.506;2024-01-30T02:32:38;12.75;;;6.70;;
34359;SDS011;20624;55.870;26.506;2024-01-30T02:35:08;13.00;;;6.65;;
34359;SDS011;20624;55.870;26.506;2024-01-30T02:40:06;13.20;;;6.50;;
34359;SDS011;20624;55.870;26.506;2024-01-30T02:42:34;13.60;;;6.82;;
34359;SDS011;20624;55.870;26.506;2024-01-30T02:45:01;11.85;;;6.82;;
34359;SDS011;20624;55.870;26.506;2024-01-30T02:47:31;13.48;;;7.10;;
34359;SDS011;20624;55.870;26.506;2024-01-30T02:49:59;12.55;;;6.57;;
34359;SDS011;20624;55.870;26.506;2024-01-30T02:52:29;12.07;;;6.88;;
34359;SDS011;20624;55.870;26.506;2024-01-30T02:55:00;11.68;;;8.07;;
34359;SDS011;20624;55.870;26.506;2024-01-30T02:57:28;13.98;;;9.13;;
34359;SDS011;20624;55.870;26.506;2024-01-30T02:59:56;12.77;;;7.25;;
34359;SDS011;20624;55.870;26.506;2024-01-30T03:02:23;11.85;;;6.10;;
34359;SDS011;20624;55.870;26.506;2024-01-30T03:04:51;11.48;;;6.70;;
34359;SDS011;20624;55.870;26.506;2024-01-30T03:07:21;9.25;;;5.65;;
34359;SDS011;20624;55.870;26.506;2024-01-30T03:09:52;10.68;;;5.85;;
34359;SDS011;20624;55.870;26.506;2024-01-30T03:12:22;12.25;;;6.55;;
34359;SDS011;20624;55.870;26.506;2024-01-30T03:14:52;13.10;;;7.38;;
34359;SDS011;20624;55.870;26.506;2024-01-30T03:17:20;15.20;;;6.57;;
34359;SDS011;20624;55.870;26.506;2024-01-30T03:19:50;10.18;;;6.32;;
34359;SDS011;20624;55.870;26.506;2024-01-30T03:22:17;22.40;;;12.40;;
34359;SDS011;20624;55.870;26.506;2024-01-30T03:24:48;21.73;;;11.45;;
34359;SDS011;20624;55.870;26.506;2024-01-30T03:27:15;12.43;;;6.70;;
34359;SDS011;20624;55.870;26.506;2024-01-30T03:29:43;13.63;;;6.70;;
34359;SDS011;20624;55.870;26.506;2024-01-30T03:32:10;10.57;;;5.70;;
34359;SDS011;20624;55.870;26.506;2024-01-30T03:34:39;13.63;;;6.15;;
34359;SDS011;20624;55.870;26.506;2024-01-30T03:37:06;13.20;;;7.43;;
34359;SDS011;20624;55.870;26.506;2024-01-30T03:39:36;13.55;;;7.68;;
34359;SDS011;20624;55.870;26.506;2024-01-30T03:42:04;14.18;;;7.70;;
34359;SDS011;20624;55.870;26.506;2024-01-30T03:44:32;14.98;;;8.30;;
34359;SDS011;20624;55.870;26.506;2024-01-30T03:47:02;13.15;;;6.75;;
34359;SDS011;20624;55.870;26.506;2024-01-30T03:49:30;12.65;;;6.18;;
34359;SDS011;20624;55.870;26.506;2024-01-30T03:52:01;13.38;;;7.78;;
34359;SDS011;20624;55.870;26.506;2024-01-30T03:54:29;12.02;;;6.63;;
34359;SDS011;20624;55.870;26.506;2024-01-30T03:56:56;12.73;;;5.95;;
34359;SDS011;20624;55.870;26.506;2024-01-30T03:59:24;14.60;;;6.10;;
34359;SDS011;20624;55.870;26.506;2024-01-30T04:01:54;9.30;;;5.63;;
34359;SDS011;20624;55.870;26.506;2024-01-30T04:04:22;16.23;;;6.85;;
34359;SDS011;20624;55.870;26.506;2024-01-30T04:06:52;12.40;;;7.70;;
34359;SDS011;20624;55.870;26.506;2024-01-30T04:09:20;12.77;;;7.55;;
34359;SDS011;20624;55.870;26.506;2024-01-30T04:11:48;12.25;;;6.45;;
34359;SDS011;20624;55.870;26.506;2024-01-30T04:14:18;10.57;;;6.35;;
34359;SDS011;20624;55.870;26.506;2024-01-30T04:16:51;9.93;;;5.68;;
34359;SDS011;20624;55.870;26.506;2024-01-30T04:19:19;10.75;;;5.80;;
34359;SDS011;20624;55.870;26.506;2024-01-30T04:21:50;9.65;;;5.82;;
34359;SDS011;20624;55.870;26.506;2024-01-30T04:24:17;11.43;;;5.97;;
34359;SDS011;20624;55.870;26.506;2024-01-30T04:26:45;13.27;;;6.97;;
34359;SDS011;20624;55.870;26.506;2024-01-30T04:29:17;12.00;;;6.25;;
34359;SDS011;20624;55.870;26.506;2024-01-30T04:31:47;10.57;;;6.50;;
34359;SDS011;20624;55.870;26.506;2024-01-30T04:34:17;12.35;;;6.75;;
34359;SDS011;20624;55.870;26.506;2024-01-30T04:36:45;16.60;;;6.88;;
34359;SDS011;20624;55.870;26.506;2024-01-30T04:39:17;10.50;;;6.00;;
34359;SDS011;20624;55.870;26.506;2024-01-30T04:41:44;13.45;;;6.85;;
34359;SDS011;20624;55.870;26.506;2024-01-30T04:44:12;21.00;;;7.38;;
34359;SDS011;20624;55.870;26.506;2024-01-30T04:46:43;11.43;;;6.70;;
34359;SDS011;20624;55.870;26.506;2024-01-30T04:49:10;12.80;;;7.47;;
34359;SDS011;20624;55.870;26.506;2024-01-30T04:51:40;13.55;;;6.63;;
34359;SDS011;20624;55.870;26.506;2024-01-30T04:54:08;12.15;;;6.70;;
34359;SDS011;20624;55.870;26.506;2024-01-30T04:56:38;16.17;;;7.22;;
34359;SDS011;20624;55.870;26.506;2024-01-30T04:59:06;9.98;;;6.18;;
34359;SDS011;20624;55.870;26.506;2024-01-30T05:01:35;16.08;;;7.70;;
34359;SDS011;20624;55.870;26.506;2024-01-30T05:04:03;12.10;;;6.50;;
34359;SDS011;20624;55.870;26.506;2024-01-30T05:06:31;14.23;;;7.22;;
34359;SDS011;20624;55.870;26.506;2024-01-30T05:08:58;26.77;;;9.35;;
34359;SDS011;20624;55.870;26.506;2024-01-30T05:11:26;13.98;;;7.30;;
34359;SDS011;20624;55.870;26.506;2024-01-30T05:13:53;12.93;;;7.03;;
34359;SDS011;20624;55.870;26.506;2024-01-30T05:16:21;14.30;;;7.55;;
34359;SDS011;20624;55.870;26.506;2024-01-30T05:18:52;14.02;;;8.07;;
34359;SDS011;20624;55.870;26.506;2024-01-30T05:21:22;16.13;;;8.32;;
34359;SDS011;20624;55.870;26.506;2024-01-30T05:23:52;25.30;;;10.15;;
34359;SDS011;20624;55.870;26.506;2024-01-30T05:26:23;16.60;;;8.30;;
34359;SDS011;20624;55.870;26.506;2024-01-30T05:28:50;23.48;;;9.68;;
34359;SDS011;20624;55.870;26.506;2024-01-30T05:31:18;23.08;;;10.98;;
34359;SDS011;20624;55.870;26.506;2024-01-30T05:33:46;26.45;;;12.23;;
34359;SDS011;20624;55.870;26.506;2024-01-30T05:36:13;26.30;;;10.93;;
34359;SDS011;20624;55.870;26.506;2024-01-30T05:38:43;27.35;;;12.02;;
34359;SDS011;20624;55.870;26.506;2024-01-30T05:41:11;25.77;;;11.07;;
34359;SDS011;20624;55.870;26.506;2024-01-30T05:43:38;30.75;;;12.73;;
34359;SDS011;20624;55.870;26.506;2024-01-30T05:46:06;27.10;;;11.18;;
34359;SDS011;20624;55.870;26.506;2024-01-30T05:48:33;28.75;;;12.13;;
34359;SDS011;20624;55.870;26.506;2024-01-30T05:51:03;21.23;;;9.73;;
34359;SDS011;20624;55.870;26.506;2024-01-30T05:53:31;24.73;;;9.70;;
34359;SDS011;20624;55.870;26.506;2024-01-30T05:56:00;26.63;;;10.15;;
34359;SDS011;20624;55.870;26.506;2024-01-30T05:58:28;22.45;;;9.18;;
34359;SDS011;20624;55.870;26.506;2024-01-30T06:00:59;31.20;;;10.82;;
34359;SDS011;20624;55.870;26.506;2024-01-30T06:05:54;39.95;;;12.00;;
34359;SDS011;20624;55.870;26.506;2024-01-30T06:08:25;25.60;;;9.95;;
34359;SDS011;20624;55.870;26.506;2024-01-30T06:10:52;25.25;;;10.57;;
34359;SDS011;20624;55.870;26.506;2024-01-30T06:13:20;34.53;;;11.88;;
34359;SDS011;20624;55.870;26.506;2024-01-30T06:15:48;26.98;;;10.82;;
34359;SDS011;20624;55.870;26.506;2024-01-30T06:18:18;31.98;;;12.88;;
34359;SDS011;20624;55.870;26.506;2024-01-30T06:20:48;45.33;;;18.75;;
34359;SDS011;20624;55.870;26.506;2024-01-30T06:23:21;51.03;;;21.20;;
34359;SDS011;20624;55.870;26.506;2024-01-30T06:25:48;57.63;;;22.13;;
34359;SDS011;20624;55.870;26.506;2024-01-30T06:28:16;44.58;;;18.23;;
34359;SDS011;20624;55.870;26.506;2024-01-30T06:30:44;41.60;;;14.93;;
34359;SDS011;20624;55.870;26.506;2024-01-30T06:33:12;48.17;;;16.25;;
34359;SDS011;20624;55.870;26.506;2024-01-30T06:35:40;33.13;;;12.20;;
34359;SDS011;20624;55.870;26.506;2024-01-30T06:40:39;41.30;;;14.48;;
34359;SDS011;20624;55.870;26.506;2024-01-30T06:43:07;30.23;;;12.90;;
34359;SDS011;20624;55.870;26.506;2024-01-30T06:45:43;43.22;;;14.20;;
34359;SDS011;20624;55.870;26.506;2024-01-30T06:48:12;37.85;;;16.38;;
34359;SDS011;20624;55.870;26.506;2024-01-30T06:50:40;38.65;;;13.60;;
34359;SDS011;20624;55.870;26.506;2024-01-30T06:53:08;29.20;;;13.18;;
34359;SDS011;20624;55.870;26.506;2024-01-30T06:55:38;34.03;;;13.55;;
34359;SDS011;20624;55.870;26.506;2024-01-30T07:00:33;56.25;;;18.10;;
34359;SDS011;20624;55.870;26.506;2024-01-30T07:03:02;45.50;;;19.42;;
34359;SDS011;20624;55.870;26.506;2024-01-30T07:05:33;38.80;;;19.08;;
34359;SDS011;20624;55.870;26.506;2024-01-30T07:08:00;40.30;;;18.17;;
34359;SDS011;20624;55.870;26.506;2024-01-30T07:10:28;46.00;;;20.17;;
34359;SDS011;20624;55.870;26.506;2024-01-30T07:12:55;43.53;;;16.55;;
34359;SDS011;20624;55.870;26.506;2024-01-30T07:15:25;36.90;;;14.50;;
34359;SDS011;20624;55.870;26.506;2024-01-30T07:17:53;43.40;;;16.17;;
34359;SDS011;20624;55.870;26.506;2024-01-30T07:20:21;37.53;;;14.60;;
34359;SDS011;20624;55.870;26.506;2024-01-30T07:22:48;56.33;;;16.45;;
34359;SDS011;20624;55.870;26.506;2024-01-30T07:25:16;53.90;;;16.08;;
34359;SDS011;20624;55.870;26.506;2024-01-30T07:27:44;43.22;;;15.23;;
34359;SDS011;20624;55.870;26.506;2024-01-30T07:30:13;43.88;;;13.07;;
34359;SDS011;20624;55.870;26.506;2024-01-30T07:32:46;48.53;;;14.60;;
34359;SDS011;20624;55.870;26.506;2024-01-30T07:37:41;55.60;;;15.35;;
34359;SDS011;20624;55.870;26.506;2024-01-30T07:40:09;51.35;;;15.30;;
34359;SDS011;20624;55.870;26.506;2024-01-30T07:42:36;57.97;;;17.25;;
34359;SDS011;20624;55.870;26.506;2024-01-30T07:45:04;42.97;;;14.60;;
34359;SDS011;20624;55.870;26.506;2024-01-30T07:47:32;50.25;;;16.25;;
34359;SDS011;20624;55.870;26.506;2024-01-30T07:50:00;54.22;;;17.00;;
34359;SDS011;20624;55.870;26.506;2024-01-30T07:52:30;65.10;;;18.88;;
34359;SDS011;20624;55.870;26.506;2024-01-30T07:55:00;48.40;;;16.80;;
34359;SDS011;20624;55.870;26.506;2024-01-30T07:57:33;36.53;;;14.80;;
34359;SDS011;20624;55.870;26.506;2024-01-30T08:00:01;52.13;;;17.67;;
34359;SDS011;20624;55.870;26.506;2024-01-30T08:02:29;63.97;;;25.70;;
34359;SDS011;20624;55.870;26.506;2024-01-30T08:04:57;75.93;;;30.30;;
34359;SDS011;20624;55.870;26.506;2024-01-30T08:07:24;69.28;;;26.67;;
34359;SDS011;20624;55.870;26.506;2024-01-30T08:09:52;63.63;;;21.98;;
34359;SDS011;20624;55.870;26.506;2024-01-30T08:12:23;64.95;;;20.77;;
34359;SDS011;20624;55.870;26.506;2024-01-30T08:14:50;50.67;;;20.63;;
34359;SDS011;20624;55.870;26.506;2024-01-30T08:17:18;74.72;;;27.23;;
34359;SDS011;20624;55.870;26.506;2024-01-30T08:19:45;91.28;;;31.45;;
34359;SDS011;20624;55.870;26.506;2024-01-30T08:22:13;83.93;;;29.95;;
34359;SDS011;20624;55.870;26.506;2024-01-30T08:24:40;74.03;;;29.38;;
34359;SDS011;20624;55.870;26.506;2024-01-30T08:27:08;66.22;;;22.95;;
34359;SDS011;20624;55.870;26.506;2024-01-30T08:29:36;45.38;;;17.23;;
34359;SDS011;20624;55.870;26.506;2024-01-30T08:32:06;37.75;;;14.18;;
34359;SDS011;20624;55.870;26.506;2024-01-30T08:34:33;47.72;;;14.98;;
34359;SDS011;20624;55.870;26.506;2024-01-30T08:37:03;41.88;;;13.70;;
34359;SDS011;20624;55.870;26.506;2024-01-30T08:39:31;47.17;;;16.30;;
34359;SDS011;20624;55.870;26.506;2024-01-30T08:41:59;39.38;;;15.23;;
34359;SDS011;20624;55.870;26.506;2024-01-30T08:44:27;54.47;;;19.23;;
34359;SDS011;20624;55.870;26.506;2024-01-30T08:46:55;51.40;;;15.10;;
34359;SDS011;20624;55.870;26.506;2024-01-30T08:49:25;35.47;;;14.95;;
34359;SDS011;20624;55.870;26.506;2024-01-30T08:51:53;36.15;;;13.85;;
34359;SDS011;20624;55.870;26.506;2024-01-30T08:54:20;39.47;;;13.23;;
34359;SDS011;20624;55.870;26.506;2024-01-30T08:56:48;42.90;;;14.95;;
34359;SDS011;20624;55.870;26.506;2024-01-30T08:59:16;38.25;;;12.85;;
34359;SDS011;20624;55.870;26.506;2024-01-30T09:01:43;40.40;;;13.60;;
34359;SDS011;20624;55.870;26.506;2024-01-30T09:04:28;36.90;;;12.88;;
34359;SDS011;20624;55.870;26.506;2024-01-30T09:06:56;35.72;;;12.70;;
34359;SDS011;20624;55.870;26.506;2024-01-30T09:09:23;33.90;;;11.48;;
34359;SDS011;20624;55.870;26.506;2024-01-30T09:11:51;45.40;;;15.73;;
34359;SDS011;20624;55.870;26.506;2024-01-30T09:16:51;44.53;;;14.10;;
34359;SDS011;20624;55.870;26.506;2024-01-30T09:19:18;40.47;;;14.32;;
34359;SDS011;20624;55.870;26.506;2024-01-30T09:21:46;41.22;;;14.30;;
34359;SDS011;20624;55.870;26.506;2024-01-30T09:24:14;49.88;;;16.77;;
34359;SDS011;20624;55.870;26.506;2024-01-30T09:26:44;43.42;;;14.25;;
34359;SDS011;20624;55.870;26.506;2024-01-30T09:29:14;35.70;;;13.27;;
34359;SDS011;20624;55.870;26.506;2024-01-30T09:31:48;53.38;;;15.82;;
34359;SDS011;20624;55.870;26.506;2024-01-30T09:34:16;34.45;;;13.13;;
34359;SDS011;20624;55.870;26.506;2024-01-30T09:36:44;34.13;;;12.18;;
34359;SDS011;20624;55.870;26.506;2024-01-30T09:41:51;41.67;;;14.70;;
34359;SDS011;20624;55.870;26.506;2024-01-30T09:44:21;37.28;;;13.55;;
34359;SDS011;20624;55.870;26.506;2024-01-30T09:46:52;30.73;;;11.48;;
34359;SDS011;20624;55.870;26.506;2024-01-30T09:51:51;32.90;;;12.23;;
34359;SDS011;20624;55.870;26.506;2024-01-30T09:54:19;30.15;;;11.93;;
34359;SDS011;20624;55.870;26.506;2024-01-30T09:56:47;29.65;;;11.82;;
34359;SDS011;20624;55.870;26.506;2024-01-30T09:59:15;30.63;;;11.93;;
34359;SDS011;20624;55.870;26.506;2024-01-30T10:01:42;30.25;;;10.88;;
34359;SDS011;20624;55.870;26.506;2024-01-30T10:04:10;45.00;;;15.35;;
34359;SDS011;20624;55.870;26.506;2024-01-30T10:06:38;39.75;;;13.30;;
34359;SDS011;20624;55.870;26.506;2024-01-30T10:09:10;36.08;;;13.18;;
34359;SDS011;20624;55.870;26.506;2024-01-30T10:11:40;38.28;;;13.48;;
34359;SDS011;20624;55.870;26.506;2024-01-30T10:14:08;39.22;;;12.85;;
34359;SDS011;20624;55.870;26.506;2024-01-30T10:16:35;38.90;;;14.43;;
34359;SDS011;20624;55.870;26.506;2024-01-30T10:19:03;35.63;;;12.63;;
34359;SDS011;20624;55.870;26.506;2024-01-30T10:21:31;35.65;;;13.45;;
34359;SDS011;20624;55.870;26.506;2024-01-30T10:23:58;33.17;;;12.65;;
34359;SDS011;20624;55.870;26.506;2024-01-30T10:26:26;38.03;;;14.13;;
34359;SDS011;20624;55.870;26.506;2024-01-30T10:28:56;30.65;;;12.45;;
34359;SDS011;20624;55.870;26.506;2024-01-30T10:31:26;27.98;;;11.50;;
34359;SDS011;20624;55.870;26.506;2024-01-30T10:33:53;33.55;;;12.77;;
34359;SDS011;20624;55.870;26.506;2024-01-30T10:36:39;41.95;;;14.05;;
34359;SDS011;20624;55.870;26.506;2024-01-30T10:39:11;40.00;;;13.90;;
34359;SDS011;20624;55.870;26.506;2024-01-30T10:41:44;33.08;;;11.68;;
34359;SDS011;20624;55.870;26.506;2024-01-30T10:44:11;36.25;;;12.43;;
34359;SDS011;20624;55.870;26.506;2024-01-30T10:46:42;31.98;;;13.60;;
34359;SDS011;20624;55.870;26.506;2024-01-30T10:49:14;32.83;;;12.25;;
34359;SDS011;20624;55.870;26.506;2024-01-30T10:51:43;41.22;;;12.68;;
34359;SDS011;20624;55.870;26.506;2024-01-30T10:54:11;33.03;;;11.85;;
34359;SDS011;20624;55.870;26.506;2024-01-30T10:56:39;33.90;;;13.75;;
34359;SDS011;20624;55.870;26.506;2024-01-30T10:59:07;35.28;;;11.43;;
34359;SDS011;20624;55.870;26.506;2024-01-30T11:01:37;36.00;;;12.65;;
34359;SDS011;20624;55.870;26.506;2024-01-30T11:04:05;35.45;;;13.75;;
34359;SDS011;20624;55.870;26.506;2024-01-30T11:06:40;33.28;;;12.80;;
34359;SDS011;20624;55.870;26.506;2024-01-30T11:09:10;35.63;;;13.52;;
34359;SDS011;20624;55.870;26.506;2024-01-30T11:11:52;35.15;;;11.63;;
34359;SDS011;20624;55.870;26.506;2024-01-30T11:14:28;38.08;;;13.52;;
34359;SDS011;20624;55.870;26.506;2024-01-30T11:17:00;28.60;;;10.23;;
34359;SDS011;20624;55.870;26.506;2024-01-30T11:19:33;23.48;;;10.27;;
34359;SDS011;20624;55.870;26.506;2024-01-30T11:22:01;36.45;;;12.23;;
34359;SDS011;20624;55.870;26.506;2024-01-30T11:24:40;27.45;;;11.27;;
34359;SDS011;20624;55.870;26.506;2024-01-30T11:27:08;34.53;;;11.10;;
34359;SDS011;20624;55.870;26.506;2024-01-30T11:29:39;44.50;;;12.95;;
34359;SDS011;20624;55.870;26.506;2024-01-30T11:32:10;32.38;;;11.32;;
34359;SDS011;20624;55.870;26.506;2024-01-30T11:34:40;41.38;;;12.73;;
34359;SDS011;20624;55.870;26.506;2024-01-30T11:37:11;27.45;;;9.90;;
34359;SDS011;20624;55.870;26.506;2024-01-30T11:39:39;47.47;;;14.55;;
34359;SDS011;20624;55.870;26.506;2024-01-30T11:42:08;30.55;;;11.55;;
34359;SDS011;20624;55.870;26.506;2024-01-30T11:44:35;45.47;;;13.70;;
34359;SDS011;20624;55.870;26.506;2024-01-30T11:47:04;38.15;;;11.85;;
34359;SDS011;20624;55.870;26.506;2024-01-30T11:49:31;32.65;;;9.95;;
34359;SDS011;20624;55.870;26.506;2024-01-30T11:52:01;33.83;;;10.52;;
34359;SDS011;20624;55.870;26.506;2024-01-30T11:54:31;42.10;;;12.20;;
34359;SDS011;20624;55.870;26.506;2024-01-30T11:57:01;33.75;;;10.50;;
34359;SDS011;20624;55.870;26.506;2024-01-30T11:59:31;47.10;;;13.20;;
34359;SDS011;20624;55.870;26.506;2024-01-30T12:01:59;46.15;;;13.30;;
34359;SDS011;20624;55.870;26.506;2024-01-30T12:04:30;30.75;;;10.07;;
34359;SDS011;20624;55.870;26.506;2024-01-30T12:06:58;32.28;;;10.57;;
34359;SDS011;20624;55.870;26.506;2024-01-30T12:09:29;34.15;;;12.07;;
34359;SDS011;20624;55.870;26.506;2024-01-30T12:11:57;30.98;;;11.77;;
34359;SDS011;20624;55.870;26.506;2024-01-30T12:14:25;26.88;;;9.63;;
34359;SDS011;20624;55.870;26.506;2024-01-30T12:16:54;44.42;;;13.77;;
34359;SDS011;20624;55.870;26.506;2024-01-30T12:19:30;29.30;;;11.10;;
34359;SDS011;20624;55.870;26.506;2024-01-30T12:21:58;40.88;;;13.23;;
34359;SDS011;20624;55.870;26.506;2024-01-30T12:24:26;32.13;;;10.48;;
34359;SDS011;20624;55.870;26.506;2024-01-30T12:32:38;39.58;;;13.07;;
34359;SDS011;20624;55.870;26.506;2024-01-30T12:35:13;33.40;;;12.80;;
34359;SDS011;20624;55.870;26.506;2024-01-30T12:37:45;35.67;;;12.43;;
34359;SDS011;20624;55.870;26.506;2024-01-30T12:40:13;30.40;;;12.50;;
34359;SDS011;20624;55.870;26.506;2024-01-30T12:42:42;37.03;;;14.13;;
34359;SDS011;20624;55.870;26.506;2024-01-30T12:45:09;26.40;;;11.73;;
34359;SDS011;20624;55.870;26.506;2024-01-30T12:47:38;26.88;;;11.60;;
34359;SDS011;20624;55.870;26.506;2024-01-30T12:50:14;35.33;;;15.15;;
34359;SDS011;20624;55.870;26.506;2024-01-30T12:53:00;37.50;;;15.98;;
34359;SDS011;20624;55.870;26.506;2024-01-30T12:55:28;33.92;;;11.60;;
34359;SDS011;20624;55.870;26.506;2024-01-30T12:57:58;36.42;;;13.38;;
34359;SDS011;20624;55.870;26.506;2024-01-30T13:00:26;26.00;;;11.15;;
34359;SDS011;20624;55.870;26.506;2024-01-30T13:02:57;29.23;;;11.70;;
34359;SDS011;20624;55.870;26.506;2024-01-30T13:05:25;28.23;;;10.13;;
34359;SDS011;20624;55.870;26.506;2024-01-30T13:07:57;33.67;;;11.10;;
34359;SDS011;20624;55.870;26.506;2024-01-30T13:10:25;45.03;;;13.68;;
34359;SDS011;20624;55.870;26.506;2024-01-30T13:12:54;39.38;;;14.00;;
34359;SDS011;20624;55.870;26.506;2024-01-30T13:15:21;40.97;;;15.23;;
34359;SDS011;20624;55.870;26.506;2024-01-30T13:17:49;46.85;;;15.68;;
34359;SDS011;20624;55.870;26.506;2024-01-30T13:20:19;47.97;;;18.70;;
34359;SDS011;20624;55.870;26.506;2024-01-30T13:22:48;42.05;;;15.23;;
34359;SDS011;20624;55.870;26.506;2024-01-30T13:25:19;35.65;;;14.80;;
34359;SDS011;20624;55.870;26.506;2024-01-30T13:27:47;41.00;;;13.35;;
34359;SDS011;20624;55.870;26.506;2024-01-30T13:30:15;35.20;;;12.05;;
34359;SDS011;20624;55.870;26.506;2024-01-30T13:32:42;34.42;;;13.55;;
34359;SDS011;20624;55.870;26.506;2024-01-30T13:35:11;42.78;;;15.25;;
34359;SDS011;20624;55.870;26.506;2024-01-30T13:37:38;46.22;;;15.40;;
34359;SDS011;20624;55.870;26.506;2024-01-30T13:40:08;47.17;;;16.42;;
34359;SDS011;20624;55.870;26.506;2024-01-30T13:42:39;47.08;;;16.73;;
34359;SDS011;20624;55.870;26.506;2024-01-30T13:45:08;27.85;;;11.63;;
34359;SDS011;20624;55.870;26.506;2024-01-30T13:47:41;30.65;;;12.00;;
34359;SDS011;20624;55.870;26.506;2024-01-30T13:50:09;37.70;;;12.48;;
34359;SDS011;20624;55.870;26.506;2024-01-30T13:52:41;31.65;;;12.05;;
34359;SDS011;20624;55.870;26.506;2024-01-30T13:57:38;57.30;;;20.10;;
34359;SDS011;20624;55.870;26.506;2024-01-30T14:00:06;48.97;;;20.80;;
34359;SDS011;20624;55.870;26.506;2024-01-30T14:02:34;59.75;;;22.40;;
34359;SDS011;20624;55.870;26.506;2024-01-30T14:05:01;63.53;;;23.95;;
34359;SDS011;20624;55.870;26.506;2024-01-30T14:07:34;57.60;;;19.38;;
34359;SDS011;20624;55.870;26.506;2024-01-30T14:10:02;35.65;;;14.68;;
34359;SDS011;20624;55.870;26.506;2024-01-30T14:12:34;57.08;;;23.98;;
34359;SDS011;20624;55.870;26.506;2024-01-30T14:15:02;46.60;;;18.08;;
34359;SDS011;20624;55.870;26.506;2024-01-30T14:17:44;43.90;;;16.90;;
34359;SDS011;20624;55.870;26.506;2024-01-30T14:20:15;47.22;;;20.25;;
34359;SDS011;20624;55.870;26.506;2024-01-30T14:22:45;66.95;;;22.80;;
34359;SDS011;20624;55.870;26.506;2024-01-30T14:25:15;49.63;;;19.38;;
34359;SDS011;20624;55.870;26.506;2024-01-30T14:27:43;46.00;;;18.77;;
34359;SDS011;20624;55.870;26.506;2024-01-30T14:30:11;46.45;;;18.73;;
34359;SDS011;20624;55.870;26.506;2024-01-30T14:32:38;55.08;;;20.40;;
34359;SDS011;20624;55.870;26.506;2024-01-30T14:35:07;39.25;;;16.40;;
34359;SDS011;20624;55.870;26.506;2024-01-30T14:40:04;39.28;;;15.93;;
34359;SDS011;20624;55.870;26.506;2024-01-30T14:42:34;36.92;;;15.35;;
34359;SDS011;20624;55.870;26.506;2024-01-30T14:45:07;53.42;;;22.00;;
34359;SDS011;20624;55.870;26.506;2024-01-30T14:47:42;51.97;;;23.55;;
34359;SDS011;20624;55.870;26.506;2024-01-30T14:50:10;68.13;;;28.45;;
34359;SDS011;20624;55.870;26.506;2024-01-30T14:52:38;68.03;;;29.15;;
34359;SDS011;20624;55.870;26.506;2024-01-30T14:55:07;73.30;;;29.88;;
34359;SDS011;20624;55.870;26.506;2024-01-30T14:57:35;70.25;;;31.90;;
34359;SDS011;20624;55.870;26.506;2024-01-30T15:00:05;57.65;;;28.30;;
34359;SDS011;20624;55.870;26.506;2024-01-30T15:02:33;73.28;;;31.63;;